createdAt,value
2022-09-07T00:00:39.110Z,10.60
2022-09-07T00:03:06.072Z,15.38
2022-09-07T00:05:33.388Z,9.15
2022-09-07T00:08:00.779Z,10.60
2022-09-07T00:10:27.519Z,8.90
2022-09-07T00:12:54.272Z,11.57
2022-09-07T00:15:21.049Z,8.85
2022-09-07T00:17:47.764Z,10.77
2022-09-07T00:21:10.748Z,11.80
2022-09-07T00:23:57.038Z,9.98
2022-09-07T00:26:26.501Z,8.98
2022-09-07T00:28:56.230Z,10.25
2022-09-07T00:31:23.843Z,11.25
2022-09-07T00:33:52.713Z,11.10
2022-09-07T00:36:21.292Z,11.50
2022-09-07T00:38:48.104Z,10.10
2022-09-07T00:41:15.928Z,10.98
2022-09-07T00:43:46.239Z,9.90
2022-09-07T00:46:36.804Z,9.48
2022-09-07T00:49:08.994Z,13.15
2022-09-07T00:51:43.753Z,9.55
2022-09-07T00:54:17.271Z,17.05
2022-09-07T00:56:46.380Z,8.73
2022-09-07T00:59:15.710Z,8.32
2022-09-07T01:01:42.835Z,11.60
2022-09-07T01:04:09.693Z,11.93
2022-09-07T01:06:39.306Z,9.98
2022-09-07T01:09:12.523Z,12.63
2022-09-07T01:11:39.778Z,6.38
2022-09-07T01:14:09.217Z,10.90
2022-09-07T01:16:46.070Z,9.57
2022-09-07T01:19:50.454Z,8.52
2022-09-07T01:22:26.107Z,10.73
2022-09-07T01:24:58.698Z,9.48
2022-09-07T01:28:11.063Z,7.97
2022-09-07T01:30:41.990Z,11.88
2022-09-07T01:33:33.264Z,6.55
2022-09-07T01:36:29.418Z,9.73
2022-09-07T01:41:44.346Z,6.03
2022-09-07T01:44:20.634Z,10.70
2022-09-07T01:47:06.215Z,7.72
2022-09-07T01:49:54.298Z,5.55
2022-09-07T01:52:42.816Z,6.18
2022-09-07T01:55:30.333Z,6.10
2022-09-07T01:58:29.206Z,5.80
2022-09-07T02:01:03.090Z,8.68
2022-09-07T02:03:56.107Z,8.32
2022-09-07T02:06:36.694Z,6.25
2022-09-07T02:09:10.061Z,8.73
2022-09-07T02:11:46.806Z,9.25
2022-09-07T02:14:29.359Z,10.35
2022-09-07T02:17:12.376Z,10.07
2022-09-07T02:19:44.435Z,9.43
2022-09-07T02:22:16.656Z,5.93
2022-09-07T02:24:50.255Z,4.25
2022-09-07T02:27:28.455Z,5.97
2022-09-07T02:29:55.236Z,6.28
2022-09-07T02:32:21.966Z,7.00
2022-09-07T02:34:50.093Z,7.05
2022-09-07T02:37:19.638Z,4.10
2022-09-07T02:39:46.801Z,5.18
2022-09-07T02:42:13.597Z,3.53
2022-09-07T02:44:42.417Z,5.57
2022-09-07T02:47:32.283Z,7.80
2022-09-07T02:50:33.369Z,6.70
2022-09-07T02:53:19.096Z,3.90
2022-09-07T02:58:19.620Z,4.90
2022-09-07T03:01:01.111Z,7.88
2022-09-07T03:04:06.644Z,4.38
2022-09-07T03:07:04.793Z,5.95
2022-09-07T03:09:41.502Z,9.63
2022-09-07T03:12:09.693Z,8.10
2022-09-07T03:14:40.345Z,7.63
2022-09-07T03:17:08.986Z,7.05
2022-09-07T03:19:36.619Z,4.53
2022-09-07T03:22:04.847Z,9.05
2022-09-07T03:24:31.858Z,5.60
2022-09-07T03:26:59.098Z,6.75
2022-09-07T03:29:25.863Z,7.03
2022-09-07T03:31:55.281Z,8.13
2022-09-07T03:34:22.042Z,8.80
2022-09-07T03:36:49.399Z,4.85
2022-09-07T03:39:16.210Z,4.68
2022-09-07T03:41:43.144Z,6.68
2022-09-07T03:44:10.600Z,6.28
2022-09-07T03:46:37.530Z,10.52
2022-09-07T03:49:04.373Z,3.83
2022-09-07T03:51:31.317Z,5.38
2022-09-07T03:53:59.960Z,4.80
2022-09-07T03:56:27.987Z,6.75
2022-09-07T03:58:55.606Z,10.38
2022-09-07T04:01:25.228Z,7.85
2022-09-07T04:03:53.132Z,6.25
2022-09-07T04:06:20.298Z,6.25
2022-09-07T04:08:48.641Z,4.75
2022-09-07T04:11:18.343Z,7.95
2022-09-07T04:13:45.597Z,8.25
2022-09-07T04:16:21.972Z,8.38
2022-09-07T04:18:50.327Z,10.95
2022-09-07T04:21:18.476Z,7.00
2022-09-07T04:23:45.829Z,6.05
2022-09-07T04:26:18.737Z,4.63
2022-09-07T04:28:45.819Z,5.88
2022-09-07T04:31:14.211Z,3.95
2022-09-07T04:33:40.989Z,4.95
2022-09-07T04:36:08.188Z,6.25
2022-09-07T04:38:35.194Z,4.80
2022-09-07T04:41:06.531Z,6.00
2022-09-07T04:43:33.249Z,4.55
2022-09-07T04:46:04.665Z,10.32
2022-09-07T04:48:31.637Z,5.82
2022-09-07T04:51:09.653Z,7.10
2022-09-07T04:53:37.985Z,4.35
2022-09-07T04:56:04.917Z,3.95
2022-09-07T04:58:32.079Z,7.38
2022-09-07T05:01:06.121Z,3.97
2022-09-07T05:03:35.566Z,3.15
2022-09-07T05:06:03.310Z,6.20
2022-09-07T05:08:30.791Z,6.88
2022-09-07T05:10:57.697Z,8.55
2022-09-07T05:13:25.462Z,10.20
2022-09-07T05:15:52.029Z,3.85
2022-09-07T05:18:18.695Z,2.85
2022-09-07T05:20:45.315Z,9.88
2022-09-07T05:23:12.340Z,4.97
2022-09-07T05:25:46.293Z,6.82
2022-09-07T05:28:17.297Z,4.53
2022-09-07T05:36:22.859Z,7.15
2022-09-07T05:38:49.673Z,4.20
2022-09-07T05:41:18.962Z,7.25
2022-09-07T05:46:33.689Z,4.05
2022-09-07T05:49:03.660Z,11.93
2022-09-07T05:51:30.349Z,10.93
2022-09-07T05:53:57.359Z,7.45
2022-09-07T05:56:24.019Z,4.15
2022-09-07T05:58:50.659Z,3.40
2022-09-07T06:01:17.866Z,5.45
2022-09-07T06:03:44.789Z,4.72
2022-09-07T06:06:12.786Z,4.25
2022-09-07T06:08:44.376Z,4.18
2022-09-07T06:11:13.862Z,4.13
2022-09-07T06:13:40.601Z,10.60
2022-09-07T06:16:09.286Z,4.63
2022-09-07T06:18:38.350Z,3.70
2022-09-07T06:21:10.695Z,5.72
2022-09-07T06:23:39.213Z,5.18
2022-09-07T06:26:06.729Z,5.25
2022-09-07T06:28:42.522Z,4.50
2022-09-07T06:31:18.615Z,7.88
2022-09-07T06:33:47.541Z,6.03
2022-09-07T06:36:19.687Z,4.03
2022-09-07T06:38:47.450Z,4.35
2022-09-07T06:44:18.395Z,3.20
2022-09-07T06:49:31.762Z,6.70
2022-09-07T06:51:58.326Z,5.03
2022-09-07T06:57:11.698Z,5.63
2022-09-07T06:59:38.582Z,4.85
2022-09-07T07:02:06.137Z,6.75
2022-09-07T07:04:37.699Z,4.72
2022-09-07T07:07:10.839Z,4.00
2022-09-07T07:09:37.837Z,7.40
2022-09-07T07:12:04.505Z,9.23
2022-09-07T07:14:34.418Z,6.68
2022-09-07T07:17:02.985Z,5.07
2022-09-07T07:19:29.672Z,6.80
2022-09-07T07:24:43.114Z,3.85
2022-09-07T07:27:09.834Z,6.35
2022-09-07T07:29:36.458Z,4.97
2022-09-07T07:32:04.018Z,7.60
2022-09-07T07:34:30.692Z,5.32
2022-09-07T07:36:57.339Z,5.75
2022-09-07T07:42:12.270Z,3.40
2022-09-07T07:44:38.852Z,6.30
2022-09-07T07:47:05.604Z,4.55
2022-09-07T07:49:32.126Z,3.50
2022-09-07T07:54:45.414Z,3.15
2022-09-07T07:57:12.225Z,3.25
2022-09-07T07:59:39.204Z,3.60
2022-09-07T08:02:07.446Z,5.50
2022-09-07T08:04:35.437Z,5.47
2022-09-07T08:07:08.638Z,3.65
2022-09-07T08:09:37.263Z,4.95
2022-09-07T08:12:04.030Z,4.18
2022-09-07T08:14:30.677Z,6.10
2022-09-07T08:16:57.241Z,3.50
2022-09-07T08:19:23.786Z,6.22
2022-09-07T08:21:50.236Z,4.18
2022-09-07T08:24:16.946Z,4.13
2022-09-07T08:26:43.495Z,2.67
2022-09-07T08:29:10.138Z,8.48
2022-09-07T08:31:36.911Z,5.47
2022-09-07T08:34:03.610Z,11.43
2022-09-07T08:36:31.795Z,6.90
2022-09-07T08:38:58.474Z,3.90
2022-09-07T08:41:43.869Z,4.13
2022-09-07T08:44:21.940Z,9.73
2022-09-07T08:46:48.531Z,3.90
2022-09-07T08:49:27.172Z,4.32
2022-09-07T08:52:00.114Z,4.85
2022-09-07T08:54:27.549Z,6.10
2022-09-07T08:59:57.413Z,7.22
2022-09-07T09:02:27.661Z,3.92
2022-09-07T09:08:11.239Z,6.45
2022-09-07T09:11:21.640Z,5.22
2022-09-07T09:14:15.304Z,6.10
2022-09-07T09:16:51.457Z,6.82
2022-09-07T09:19:24.007Z,6.05
2022-09-07T09:22:02.164Z,7.72
2022-09-07T09:24:36.188Z,9.15
2022-09-07T09:27:02.797Z,4.65
2022-09-07T09:29:29.370Z,7.35
2022-09-07T09:31:56.429Z,4.28
2022-09-07T09:34:24.078Z,6.53
2022-09-07T09:36:55.868Z,7.00
2022-09-07T09:39:34.436Z,4.25
2022-09-07T09:42:16.573Z,4.47
2022-09-07T09:44:44.792Z,6.97
2022-09-07T09:47:38.849Z,7.35
2022-09-07T09:52:29.194Z,4.38
2022-09-07T09:53:05.417Z,6.22
2022-09-07T09:55:36.082Z,6.00
2022-09-07T10:01:21.792Z,5.72
2022-09-07T10:03:58.191Z,7.25
2022-09-07T10:06:27.871Z,6.43
2022-09-07T10:09:00.124Z,10.00
2022-09-07T10:14:45.835Z,10.63
2022-09-07T10:17:27.477Z,10.27
2022-09-07T10:19:59.529Z,8.38
2022-09-07T10:22:40.337Z,8.90
2022-09-07T10:25:44.174Z,9.10
2022-09-07T10:28:15.179Z,8.00
2022-09-07T10:30:54.055Z,9.20
2022-09-07T10:36:53.091Z,7.85
2022-09-07T10:39:26.624Z,6.13
2022-09-07T10:42:09.348Z,8.05
2022-09-07T10:44:42.802Z,5.82
2022-09-07T10:47:28.490Z,6.20
2022-09-07T10:52:49.321Z,6.53
2022-09-07T10:55:34.363Z,7.10
2022-09-07T10:59:01.392Z,7.05
2022-09-07T11:01:26.918Z,7.80
2022-09-07T11:04:05.455Z,6.80
2022-09-07T11:07:15.795Z,7.03
2022-09-07T11:09:57.158Z,5.32
2022-09-07T11:12:38.508Z,4.20
2022-09-07T11:15:13.969Z,4.03
2022-09-07T11:17:50.652Z,3.50
2022-09-07T11:20:43.475Z,7.72
2022-09-07T11:23:25.065Z,6.22
2022-09-07T11:26:12.008Z,5.68
2022-09-07T11:31:55.294Z,3.67
2022-09-07T11:34:30.055Z,7.03
2022-09-07T11:37:35.764Z,3.15
2022-09-07T11:40:24.847Z,6.22
2022-09-07T11:43:01.418Z,5.82
2022-09-07T11:45:41.127Z,6.32
2022-09-07T11:48:38.282Z,5.22
2022-09-07T11:51:13.330Z,4.28
2022-09-07T11:53:46.356Z,6.03
2022-09-07T11:56:18.474Z,4.65
2022-09-07T11:59:06.838Z,4.78
2022-09-07T12:02:04.712Z,4.38
2022-09-07T12:05:12.889Z,7.28
2022-09-07T12:08:01.138Z,8.00
2022-09-07T12:10:51.005Z,6.10
2022-09-07T12:13:35.743Z,4.80
2022-09-07T12:16:18.276Z,5.45
2022-09-07T12:19:16.034Z,6.38
2022-09-07T12:21:50.830Z,4.22
2022-09-07T12:24:35.432Z,4.35
2022-09-07T12:27:29.137Z,4.22
2022-09-07T12:30:01.242Z,7.68
2022-09-07T12:32:58.597Z,3.15
2022-09-07T12:35:28.546Z,5.97
2022-09-07T12:37:57.058Z,5.85
2022-09-07T12:40:29.429Z,5.00
2022-09-07T12:43:14.086Z,3.28
2022-09-07T12:45:40.664Z,6.40
2022-09-07T12:48:35.226Z,6.03
2022-09-07T12:54:43.953Z,3.63
2022-09-07T12:57:39.316Z,4.97
2022-09-07T13:00:23.528Z,4.07
2022-09-07T13:02:50.131Z,5.00
2022-09-07T13:05:42.769Z,3.13
2022-09-07T13:08:24.303Z,5.25
2022-09-07T13:10:50.975Z,4.85
2022-09-07T13:16:11.749Z,5.50
2022-09-07T13:18:42.383Z,4.45
2022-09-07T13:21:08.872Z,4.43
2022-09-07T13:23:40.287Z,9.52
2022-09-07T13:26:10.684Z,3.95
2022-09-07T13:29:02.282Z,4.40
2022-09-07T13:31:49.854Z,4.97
2022-09-07T13:34:34.625Z,3.53
2022-09-07T13:37:03.745Z,4.37
2022-09-07T13:39:40.681Z,7.05
2022-09-07T13:42:12.535Z,4.97
2022-09-07T13:44:39.266Z,3.78
2022-09-07T13:47:34.584Z,6.30
2022-09-07T13:50:32.494Z,6.90
2022-09-07T13:53:27.591Z,7.15
2022-09-07T13:56:05.266Z,6.82
2022-09-07T13:58:39.362Z,8.48
2022-09-07T14:01:16.211Z,4.57
2022-09-07T14:04:06.556Z,3.97
2022-09-07T14:06:38.210Z,6.80
2022-09-07T14:09:15.779Z,3.38
2022-09-07T14:11:50.237Z,8.50
2022-09-07T14:14:21.200Z,5.97
2022-09-07T14:16:52.528Z,2.90
2022-09-07T14:19:24.040Z,4.68
2022-09-07T14:22:02.990Z,6.85
2022-09-07T14:24:38.348Z,4.45
2022-09-07T14:27:07.120Z,8.80
2022-09-07T14:29:36.096Z,3.55
2022-09-07T14:32:05.808Z,6.45
2022-09-07T14:34:37.342Z,6.50
2022-09-07T14:37:07.563Z,4.28
2022-09-07T14:39:38.069Z,3.70
2022-09-07T14:42:07.604Z,6.00
2022-09-07T14:44:40.395Z,4.68
2022-09-07T14:47:21.637Z,4.57
2022-09-07T14:49:52.788Z,4.32
2022-09-07T14:52:28.809Z,5.32
2022-09-07T14:54:55.645Z,3.95
2022-09-07T14:57:30.551Z,4.25
2022-09-07T14:59:58.868Z,4.53
2022-09-07T15:02:33.659Z,5.30
2022-09-07T15:05:26.057Z,5.35
2022-09-07T15:07:54.424Z,4.93
2022-09-07T15:10:20.951Z,4.70
2022-09-07T15:12:54.465Z,4.80
2022-09-07T15:15:26.225Z,7.50
2022-09-07T15:17:55.933Z,4.88
2022-09-07T15:20:32.129Z,3.78
2022-09-07T15:22:59.435Z,5.13
2022-09-07T15:25:26.258Z,4.15
2022-09-07T15:27:54.588Z,3.95
2022-09-07T15:30:21.250Z,3.17
2022-09-07T15:32:47.978Z,4.90
2022-09-07T15:35:15.956Z,5.78
2022-09-07T15:40:35.765Z,3.47
2022-09-07T15:43:13.647Z,5.60
2022-09-07T15:45:51.257Z,8.18
2022-09-07T15:48:25.337Z,3.95
2022-09-07T15:51:00.094Z,8.85
2022-09-07T15:56:14.615Z,12.73
2022-09-07T15:58:43.667Z,4.63
2022-09-07T16:03:59.129Z,5.93
2022-09-07T16:06:26.770Z,4.10
2022-09-07T16:08:53.642Z,5.00
2022-09-07T16:11:28.236Z,5.32
2022-09-07T16:14:02.024Z,3.47
2022-09-07T16:19:20.543Z,5.38
2022-09-07T16:21:47.625Z,3.60
2022-09-07T16:24:14.277Z,7.20
2022-09-07T16:26:40.921Z,5.45
2022-09-07T16:29:07.913Z,4.82
2022-09-07T16:31:35.032Z,3.25
2022-09-07T16:34:02.530Z,5.07
2022-09-07T16:36:30.353Z,3.85
2022-09-07T16:38:59.665Z,4.53
2022-09-07T16:41:29.421Z,6.47
2022-09-07T16:43:56.268Z,6.13
2022-09-07T16:46:26.202Z,6.38
2022-09-07T16:48:53.826Z,7.75
2022-09-07T16:51:21.931Z,4.60
2022-09-07T16:53:50.679Z,5.97
2022-09-07T16:56:19.913Z,6.70
2022-09-07T16:58:51.996Z,5.55
2022-09-07T17:01:22.276Z,7.40
2022-09-07T17:03:50.144Z,5.07
2022-09-07T17:06:18.207Z,6.32
2022-09-07T17:08:45.253Z,5.95
2022-09-07T17:11:15.762Z,4.63
2022-09-07T17:13:43.281Z,4.63
2022-09-07T17:16:15.832Z,3.90
2022-09-07T17:21:33.211Z,4.78
2022-09-07T17:24:01.665Z,5.13
2022-09-07T17:26:30.510Z,4.82
2022-09-07T17:29:00.202Z,10.60
2022-09-07T17:34:23.437Z,4.35
2022-09-07T17:36:50.270Z,5.13
2022-09-07T17:39:18.824Z,3.58
2022-09-07T17:41:47.727Z,3.45
2022-09-07T17:44:14.454Z,6.10
2022-09-07T17:46:41.068Z,5.80
2022-09-07T17:49:16.670Z,5.30
2022-09-07T17:51:44.650Z,5.45
2022-09-07T17:54:14.776Z,4.80
2022-09-07T17:56:42.229Z,5.30
2022-09-07T18:01:56.234Z,6.72
2022-09-07T18:04:23.442Z,5.75
2022-09-07T18:06:50.781Z,10.25
2022-09-07T18:09:20.122Z,8.02
2022-09-07T18:11:48.616Z,6.25
2022-09-07T18:14:16.685Z,3.03
2022-09-07T18:16:45.222Z,5.68
2022-09-07T18:19:13.037Z,6.18
2022-09-07T18:21:42.081Z,4.38
2022-09-07T18:24:16.857Z,5.82
2022-09-07T18:26:50.211Z,11.13
2022-09-07T18:29:28.649Z,7.30
2022-09-07T18:31:57.215Z,11.45
2022-09-07T18:34:24.305Z,6.57
2022-09-07T18:36:51.305Z,4.93
2022-09-07T18:39:18.190Z,6.15
2022-09-07T18:41:44.903Z,5.57
2022-09-07T18:46:58.062Z,8.68
2022-09-07T18:49:25.108Z,10.15
2022-09-07T18:54:39.839Z,9.02
2022-09-07T18:57:06.962Z,8.18
2022-09-07T18:59:34.218Z,10.98
2022-09-07T19:02:04.538Z,7.72
2022-09-07T19:07:20.418Z,15.15
2022-09-07T19:09:48.201Z,6.97
2022-09-07T19:12:15.290Z,12.20
2022-09-07T19:14:42.350Z,7.60
2022-09-07T19:17:11.729Z,7.25
2022-09-07T19:19:39.625Z,7.45
2022-09-07T19:22:06.327Z,9.32
2022-09-07T19:24:33.334Z,11.40
2022-09-07T19:27:01.068Z,12.05
2022-09-07T19:29:28.612Z,13.75
2022-09-07T19:32:04.397Z,7.50
2022-09-07T19:34:35.940Z,10.18
2022-09-07T19:37:04.164Z,7.53
2022-09-07T19:39:32.070Z,7.53
2022-09-07T19:41:59.060Z,7.18
2022-09-07T19:44:26.091Z,8.93
2022-09-07T19:46:52.725Z,9.20
2022-09-07T19:49:19.717Z,11.23
2022-09-07T19:51:49.339Z,10.18
2022-09-07T19:54:15.857Z,9.55
2022-09-07T19:56:43.318Z,11.35
2022-09-07T19:59:09.910Z,15.00
2022-09-07T20:01:38.485Z,13.55
2022-09-07T20:04:07.742Z,11.07
2022-09-07T20:06:37.313Z,8.30
2022-09-07T20:09:04.748Z,13.25
2022-09-07T20:11:32.676Z,11.93
2022-09-07T20:13:59.364Z,10.30
2022-09-07T20:16:28.100Z,19.10
2022-09-07T20:18:54.849Z,20.83
2022-09-07T20:21:23.576Z,22.65
2022-09-07T20:23:50.924Z,13.32
2022-09-07T20:26:19.998Z,9.77
2022-09-07T20:28:46.886Z,9.68
2022-09-07T20:31:15.473Z,13.30
2022-09-07T20:33:43.436Z,7.68
2022-09-07T20:36:12.688Z,5.57
2022-09-07T20:38:40.985Z,10.10
2022-09-07T20:41:09.866Z,9.05
2022-09-07T20:43:36.434Z,8.93
2022-09-07T20:46:02.954Z,12.32
2022-09-07T20:48:29.607Z,13.35
2022-09-07T20:50:57.782Z,10.02
2022-09-07T20:53:25.361Z,9.40
2022-09-07T20:55:59.270Z,6.07
2022-09-07T20:58:26.343Z,5.40
2022-09-07T21:00:53.128Z,2.88
2022-09-07T21:03:19.804Z,1.20
2022-09-07T21:05:46.569Z,2.35
2022-09-07T21:08:14.178Z,2.22
2022-09-07T21:10:45.338Z,2.55
2022-09-07T21:13:12.396Z,5.85
2022-09-07T21:15:40.403Z,2.67
2022-09-07T21:18:12.038Z,6.82
2022-09-07T21:20:38.757Z,4.18
2022-09-07T21:23:05.427Z,4.80
2022-09-07T21:25:32.158Z,5.63
2022-09-07T21:27:58.655Z,3.47
2022-09-07T21:30:25.234Z,1.92
2022-09-07T21:32:52.459Z,1.75
2022-09-07T21:35:19.234Z,2.13
2022-09-07T21:37:46.096Z,1.38
2022-09-07T21:40:12.917Z,2.05
2022-09-07T21:42:39.639Z,2.90
2022-09-07T21:45:07.395Z,4.18
2022-09-07T21:47:33.966Z,4.22
2022-09-07T21:50:00.492Z,5.47
2022-09-07T21:52:27.027Z,4.82
2022-09-07T21:54:53.625Z,3.58
2022-09-07T21:57:23.446Z,2.25
2022-09-07T21:59:50.101Z,2.70
2022-09-07T22:02:16.712Z,1.75
2022-09-07T22:04:43.365Z,0.75
2022-09-07T22:07:09.856Z,1.00
2022-09-07T22:09:36.416Z,1.42
2022-09-07T22:12:03.203Z,3.50
2022-09-07T22:14:29.882Z,2.47
2022-09-07T22:16:56.654Z,2.13
2022-09-07T22:19:23.258Z,3.63
2022-09-07T22:21:49.739Z,0.60
2022-09-07T22:24:16.810Z,1.05
2022-09-07T22:26:43.379Z,0.75
2022-09-07T22:29:12.247Z,1.02
2022-09-07T22:31:41.299Z,1.38
2022-09-07T22:34:09.421Z,5.55
2022-09-07T22:36:41.383Z,4.13
2022-09-07T22:39:14.685Z,3.40
2022-09-07T22:41:42.466Z,3.10
2022-09-07T22:44:14.905Z,3.92
2022-09-07T22:46:43.309Z,0.90
2022-09-07T22:49:13.001Z,1.80
2022-09-07T22:51:39.924Z,1.70
2022-09-07T22:54:06.675Z,2.10
2022-09-07T22:56:34.401Z,1.38
2022-09-07T22:59:03.902Z,1.30
2022-09-07T23:01:31.715Z,1.65
2022-09-07T23:03:59.202Z,2.88
2022-09-07T23:06:27.198Z,1.10
2022-09-07T23:08:55.539Z,2.42
2022-09-07T23:11:24.185Z,1.50
2022-09-07T23:13:56.775Z,1.38
2022-09-07T23:16:24.266Z,1.73
2022-09-07T23:18:51.360Z,2.85
2022-09-07T23:21:18.365Z,2.22
2022-09-07T23:23:49.594Z,3.22
2022-09-07T23:26:16.184Z,4.53
2022-09-07T23:28:42.779Z,1.95
2022-09-07T23:31:12.745Z,2.58
2022-09-07T23:33:39.389Z,1.50
2022-09-07T23:36:09.452Z,2.28
2022-09-07T23:38:36.274Z,1.67
2022-09-07T23:41:03.486Z,1.25
2022-09-07T23:43:31.358Z,2.38
2022-09-07T23:45:59.520Z,1.60
2022-09-07T23:48:26.315Z,1.40
2022-09-07T23:50:53.269Z,3.35
2022-09-07T23:53:21.117Z,3.80
2022-09-07T23:55:52.151Z,1.25
2022-09-07T23:58:21.111Z,1.33
